sensor_id;sensor_type;location;lat;lon;timestamp;P1;durP1;ratioP1;P2;durP2;ratioP2
28068;SDS011;15382;47.578;8.086;2023-04-15T00:01:37;6.25;;;1.60;;
28068;SDS011;15382;47.578;8.086;2023-04-15T00:11:38;6.28;;;1.30;;
28068;SDS011;15382;47.578;8.086;2023-04-15T00:21:39;2.35;;;1.10;;
28068;SDS011;15382;47.578;8.086;2023-04-15T00:41:41;3.33;;;1.10;;
28068;SDS011;15382;47.578;8.086;2023-04-15T00:51:43;1.42;;;1.02;;
28068;SDS011;15382;47.578;8.086;2023-04-15T01:11:45;6.22;;;1.38;;
28068;SDS011;15382;47.578;8.086;2023-04-15T01:31:54;2.53;;;1.17;;
28068;SDS011;15382;47.578;8.086;2023-04-15T01:41:55;4.60;;;1.27;;
28068;SDS011;15382;47.578;8.086;2023-04-15T01:51:57;1.65;;;0.90;;
28068;SDS011;15382;47.578;8.086;2023-04-15T02:12:00;8.97;;;1.80;;
28068;SDS011;15382;47.578;8.086;2023-04-15T02:22:02;4.80;;;1.85;;
28068;SDS011;15382;47.578;8.086;2023-04-15T02:42:03;4.65;;;2.20;;
28068;SDS011;15382;47.578;8.086;2023-04-15T02:52:05;8.95;;;2.10;;
28068;SDS011;15382;47.578;8.086;2023-04-15T03:02:07;6.68;;;1.98;;
28068;SDS011;15382;47.578;8.086;2023-04-15T03:22:08;4.85;;;2.40;;
28068;SDS011;15382;47.578;8.086;2023-04-15T03:42:11;6.78;;;2.65;;
28068;SDS011;15382;47.578;8.086;2023-04-15T04:02:12;4.77;;;2.27;;
28068;SDS011;15382;47.578;8.086;2023-04-15T04:12:13;6.40;;;2.60;;
28068;SDS011;15382;47.578;8.086;2023-04-15T04:22:14;6.15;;;2.53;;
28068;SDS011;15382;47.578;8.086;2023-04-15T04:32:15;12.18;;;2.30;;
28068;SDS011;15382;47.578;8.086;2023-04-15T04:42:16;4.53;;;1.98;;
28068;SDS011;15382;47.578;8.086;2023-04-15T04:52:17;4.10;;;1.80;;
28068;SDS011;15382;47.578;8.086;2023-04-15T05:02:17;2.65;;;1.50;;
28068;SDS011;15382;47.578;8.086;2023-04-15T05:12:18;6.18;;;1.50;;
28068;SDS011;15382;47.578;8.086;2023-04-15T05:22:19;8.15;;;2.30;;
28068;SDS011;15382;47.578;8.086;2023-04-15T05:32:20;3.40;;;1.33;;
28068;SDS011;15382;47.578;8.086;2023-04-15T05:42:21;7.15;;;2.17;;
28068;SDS011;15382;47.578;8.086;2023-04-15T05:52:22;2.80;;;1.52;;
28068;SDS011;15382;47.578;8.086;2023-04-15T06:02:23;8.10;;;2.30;;
28068;SDS011;15382;47.578;8.086;2023-04-15T06:12:24;4.47;;;1.50;;
28068;SDS011;15382;47.578;8.086;2023-04-15T06:32:25;5.27;;;1.40;;
28068;SDS011;15382;47.578;8.086;2023-04-15T06:42:26;3.55;;;1.88;;
28068;SDS011;15382;47.578;8.086;2023-04-15T07:02:28;8.93;;;2.03;;
28068;SDS011;15382;47.578;8.086;2023-04-15T07:22:29;6.28;;;1.75;;
28068;SDS011;15382;47.578;8.086;2023-04-15T07:32:31;13.52;;;4.68;;
28068;SDS011;15382;47.578;8.086;2023-04-15T07:42:33;5.13;;;1.77;;
28068;SDS011;15382;47.578;8.086;2023-04-15T07:52:34;5.57;;;1.80;;
28068;SDS011;15382;47.578;8.086;2023-04-15T08:02:38;4.22;;;2.10;;
28068;SDS011;15382;47.578;8.086;2023-04-15T08:12:39;9.27;;;2.35;;
28068;SDS011;15382;47.578;8.086;2023-04-15T08:22:40;5.47;;;2.00;;
28068;SDS011;15382;47.578;8.086;2023-04-15T08:32:42;5.10;;;2.10;;
28068;SDS011;15382;47.578;8.086;2023-04-15T08:42:47;3.03;;;1.80;;
28068;SDS011;15382;47.578;8.086;2023-04-15T08:52:53;3.70;;;2.10;;
28068;SDS011;15382;47.578;8.086;2023-04-15T09:02:55;5.85;;;1.58;;
28068;SDS011;15382;47.578;8.086;2023-04-15T09:12:57;3.95;;;1.77;;
28068;SDS011;15382;47.578;8.086;2023-04-15T09:22:58;3.42;;;1.13;;
28068;SDS011;15382;47.578;8.086;2023-04-15T09:33:00;2.27;;;1.30;;
28068;SDS011;15382;47.578;8.086;2023-04-15T09:43:04;5.38;;;1.90;;
28068;SDS011;15382;47.578;8.086;2023-04-15T09:53:07;3.50;;;1.60;;
28068;SDS011;15382;47.578;8.086;2023-04-15T10:03:17;2.78;;;1.23;;
28068;SDS011;15382;47.578;8.086;2023-04-15T10:13:19;3.75;;;1.17;;
28068;SDS011;15382;47.578;8.086;2023-04-15T10:23:22;3.28;;;0.90;;
28068;SDS011;15382;47.578;8.086;2023-04-15T10:33:24;4.13;;;1.10;;
28068;SDS011;15382;47.578;8.086;2023-04-15T10:43:27;5.22;;;1.33;;
28068;SDS011;15382;47.578;8.086;2023-04-15T10:53:28;2.17;;;1.00;;
28068;SDS011;15382;47.578;8.086;2023-04-15T11:03:38;6.68;;;1.00;;
28068;SDS011;15382;47.578;8.086;2023-04-15T11:13:48;1.75;;;0.77;;
28068;SDS011;15382;47.578;8.086;2023-04-15T11:23:49;1.75;;;1.02;;
28068;SDS011;15382;47.578;8.086;2023-04-15T11:33:54;3.37;;;0.83;;
28068;SDS011;15382;47.578;8.086;2023-04-15T11:43:58;1.60;;;0.82;;
28068;SDS011;15382;47.578;8.086;2023-04-15T11:53:58;1.57;;;1.00;;
28068;SDS011;15382;47.578;8.086;2023-04-15T12:04:00;2.17;;;0.80;;
28068;SDS011;15382;47.578;8.086;2023-04-15T12:14:23;1.23;;;0.93;;
28068;SDS011;15382;47.578;8.086;2023-04-15T12:24:25;3.60;;;0.75;;
28068;SDS011;15382;47.578;8.086;2023-04-15T12:34:30;2.38;;;1.23;;
28068;SDS011;15382;47.578;8.086;2023-04-15T12:44:33;3.30;;;0.90;;
28068;SDS011;15382;47.578;8.086;2023-04-15T12:54:34;1.63;;;0.80;;
28068;SDS011;15382;47.578;8.086;2023-04-15T13:04:35;1.87;;;0.77;;
28068;SDS011;15382;47.578;8.086;2023-04-15T13:14:36;1.40;;;0.90;;
28068;SDS011;15382;47.578;8.086;2023-04-15T13:24:37;2.70;;;0.77;;
28068;SDS011;15382;47.578;8.086;2023-04-15T13:34:38;0.60;;;0.50;;
28068;SDS011;15382;47.578;8.086;2023-04-15T13:44:39;4.50;;;0.70;;
28068;SDS011;15382;47.578;8.086;2023-04-15T13:54:40;2.20;;;0.50;;
28068;SDS011;15382;47.578;8.086;2023-04-15T14:04:40;3.13;;;0.90;;
28068;SDS011;15382;47.578;8.086;2023-04-15T14:14:41;3.73;;;1.40;;
28068;SDS011;15382;47.578;8.086;2023-04-15T14:24:42;3.70;;;1.93;;
28068;SDS011;15382;47.578;8.086;2023-04-15T14:34:43;3.90;;;1.87;;
28068;SDS011;15382;47.578;8.086;2023-04-15T14:44:43;3.10;;;1.00;;
28068;SDS011;15382;47.578;8.086;2023-04-15T14:54:44;2.90;;;0.87;;
28068;SDS011;15382;47.578;8.086;2023-04-15T15:04:45;3.27;;;0.87;;
28068;SDS011;15382;47.578;8.086;2023-04-15T15:14:46;3.80;;;1.30;;
28068;SDS011;15382;47.578;8.086;2023-04-15T15:24:47;3.67;;;1.57;;
28068;SDS011;15382;47.578;8.086;2023-04-15T15:34:48;2.83;;;1.90;;
28068;SDS011;15382;47.578;8.086;2023-04-15T15:44:49;3.40;;;1.00;;
28068;SDS011;15382;47.578;8.086;2023-04-15T15:54:51;5.80;;;1.55;;
28068;SDS011;15382;47.578;8.086;2023-04-15T16:04:52;4.83;;;1.80;;
28068;SDS011;15382;47.578;8.086;2023-04-15T16:14:53;4.40;;;1.70;;
28068;SDS011;15382;47.578;8.086;2023-04-15T16:24:54;4.00;;;1.80;;
28068;SDS011;15382;47.578;8.086;2023-04-15T16:34:54;2.20;;;0.97;;
28068;SDS011;15382;47.578;8.086;2023-04-15T16:44:55;2.90;;;0.83;;
28068;SDS011;15382;47.578;8.086;2023-04-15T16:54:56;2.00;;;1.00;;
28068;SDS011;15382;47.578;8.086;2023-04-15T17:04:57;2.83;;;1.33;;
28068;SDS011;15382;47.578;8.086;2023-04-15T17:14:58;3.40;;;1.30;;
28068;SDS011;15382;47.578;8.086;2023-04-15T17:24:58;2.40;;;1.20;;
28068;SDS011;15382;47.578;8.086;2023-04-15T17:35:00;3.70;;;1.60;;
28068;SDS011;15382;47.578;8.086;2023-04-15T17:45:02;3.53;;;1.73;;
28068;SDS011;15382;47.578;8.086;2023-04-15T17:55:03;3.53;;;1.50;;
28068;SDS011;15382;47.578;8.086;2023-04-15T18:05:06;8.10;;;1.70;;
28068;SDS011;15382;47.578;8.086;2023-04-15T18:15:07;3.40;;;1.60;;
28068;SDS011;15382;47.578;8.086;2023-04-15T18:35:09;6.05;;;1.40;;
28068;SDS011;15382;47.578;8.086;2023-04-15T18:45:10;2.83;;;1.53;;
28068;SDS011;15382;47.578;8.086;2023-04-15T18:55:11;4.07;;;0.90;;
28068;SDS011;15382;47.578;8.086;2023-04-15T19:05:12;1.57;;;1.00;;
28068;SDS011;15382;47.578;8.086;2023-04-15T19:15:12;1.50;;;1.03;;
28068;SDS011;15382;47.578;8.086;2023-04-15T19:25:13;2.70;;;1.63;;
28068;SDS011;15382;47.578;8.086;2023-04-15T19:35:14;3.47;;;1.80;;
28068;SDS011;15382;47.578;8.086;2023-04-15T19:45:15;6.50;;;2.60;;
28068;SDS011;15382;47.578;8.086;2023-04-15T19:55:16;6.13;;;1.60;;
28068;SDS011;15382;47.578;8.086;2023-04-15T20:05:17;2.90;;;2.03;;
28068;SDS011;15382;47.578;8.086;2023-04-15T20:15:17;3.10;;;1.87;;
28068;SDS011;15382;47.578;8.086;2023-04-15T20:25:18;3.70;;;2.30;;
28068;SDS011;15382;47.578;8.086;2023-04-15T20:35:20;5.27;;;2.27;;
28068;SDS011;15382;47.578;8.086;2023-04-15T20:45:21;9.27;;;2.47;;
28068;SDS011;15382;47.578;8.086;2023-04-15T20:55:21;3.70;;;2.17;;
28068;SDS011;15382;47.578;8.086;2023-04-15T21:05:22;5.80;;;2.47;;
28068;SDS011;15382;47.578;8.086;2023-04-15T21:15:23;5.90;;;2.80;;
28068;SDS011;15382;47.578;8.086;2023-04-15T21:25:24;3.73;;;2.43;;
28068;SDS011;15382;47.578;8.086;2023-04-15T21:35:25;5.20;;;2.60;;
28068;SDS011;15382;47.578;8.086;2023-04-15T21:45:26;5.45;;;2.85;;
28068;SDS011;15382;47.578;8.086;2023-04-15T21:55:27;4.20;;;2.13;;
28068;SDS011;15382;47.578;8.086;2023-04-15T22:05:27;5.17;;;1.40;;
28068;SDS011;15382;47.578;8.086;2023-04-15T22:15:28;3.27;;;1.50;;
28068;SDS011;15382;47.578;8.086;2023-04-15T22:25:29;2.92;;;1.30;;
28068;SDS011;15382;47.578;8.086;2023-04-15T22:35:30;5.78;;;1.58;;
28068;SDS011;15382;47.578;8.086;2023-04-15T22:45:31;5.70;;;1.40;;
28068;SDS011;15382;47.578;8.086;2023-04-15T22:55:32;2.50;;;1.33;;
28068;SDS011;15382;47.578;8.086;2023-04-15T23:05:33;4.90;;;1.40;;
28068;SDS011;15382;47.578;8.086;2023-04-15T23:15:33;2.70;;;1.30;;
28068;SDS011;15382;47.578;8.086;2023-04-15T23:25:35;2.60;;;1.40;;
28068;SDS011;15382;47.578;8.086;2023-04-15T23:35:36;3.35;;;1.40;;
28068;SDS011;15382;47.578;8.086;2023-04-15T23:45:37;3.28;;;1.92;;
28068;SDS011;15382;47.578;8.086;2023-04-15T23:55:37;3.43;;;2.30;;
